Time;durP1;ratioP1;P1;durP2;ratioP2;P2;SDS_P1;SDS_P2;PMS_P1;PMS_P2;Temp;Humidity;BMP_temperature;BMP_pressure;BME280_temperature;BME280_humidity;BME280_pressure;Samples;Min_cycle;Max_cycle;Signal;HPM_P1;HPM_P2
2021/12/20 00:01:00;;;;;;;;;18.33;16.33;;;;;8.52;91.38;102592.28;5055235;28;46388;-65
2021/12/20 00:03:25;;;;;;;;;21.33;20.33;;;;;8.51;91.77;102598.38;5055138;28;45811;-65
2021/12/20 00:05:51;;;;;;;;;25.00;22.33;;;;;8.52;91.92;102594.91;5055338;28;45716;-66
2021/12/20 00:08:17;;;;;;;;;18.67;16.33;;;;;8.45;91.97;102577.31;5055049;28;45436;-65
2021/12/20 00:10:42;;;;;;;;;21.67;19.00;;;;;8.55;92.33;102591.44;5055287;28;46605;-64
2021/12/20 00:13:07;;;;;;;;;23.67;18.00;;;;;8.54;91.91;102584.44;5055118;28;45822;-64
2021/12/20 00:15:33;;;;;;;;;20.00;19.33;;;;;8.57;91.60;102581.84;5055342;28;45396;-65
2021/12/20 00:17:58;;;;;;;;;21.33;19.00;;;;;8.59;91.78;102584.50;5055233;28;45449;-65
2021/12/20 00:20:24;;;;;;;;;18.67;16.67;;;;;8.55;91.74;102578.31;5055040;28;45490;-65
2021/12/20 00:22:49;;;;;;;;;22.33;19.00;;;;;8.43;91.92;102563.22;5054830;28;45532;-65
2021/12/20 00:25:15;;;;;;;;;21.33;18.00;;;;;8.24;91.36;102529.69;5054907;28;45714;-66
2021/12/20 00:27:41;;;;;;;;;19.33;17.33;;;;;8.46;91.68;102562.41;5053992;28;45402;-70
2021/12/20 00:30:08;;;;;;;;;19.00;17.67;;;;;8.58;91.36;102570.47;5052957;28;45757;-67
2021/12/20 00:32:33;;;;;;;;;27.33;18.67;;;;;8.59;91.06;102580.13;5046162;28;45732;-73
2021/12/20 00:34:59;;;;;;;;;27.33;21.33;;;;;8.51;91.25;102574.75;5053779;28;45676;-68
2021/12/20 00:40:21;;;;;;;;;22.67;20.67;;;;;8.56;91.40;102574.81;5054470;28;45451;-67
2021/12/20 00:43:07;;;;;;;;;27.67;20.67;;;;;8.57;91.55;102583.56;5054498;28;45443;-66
2021/12/20 00:45:35;;;;;;;;;22.00;20.33;;;;;8.57;91.71;102575.69;5054128;28;45505;-67
2021/12/20 00:48:03;;;;;;;;;22.33;21.00;;;;;8.58;91.73;102566.97;5054501;28;45785;-67
2021/12/20 00:50:29;;;;;;;;;27.00;20.00;;;;;8.57;91.44;102563.47;5054341;28;46275;-67
2021/12/20 00:52:55;;;;;;;;;20.67;18.33;;;;;8.57;91.71;102559.94;5054390;28;45848;-68
2021/12/20 00:55:25;;;;;;;;;21.67;18.67;;;;;8.54;91.21;102555.56;5054515;28;45442;-69
2021/12/20 00:57:54;;;;;;;;;22.00;19.67;;;;;8.52;90.43;102552.91;5054668;28;45451;-69
2021/12/20 01:00:35;;;;;;;;;28.00;23.67;;;;;8.57;90.41;102563.47;5054330;28;46055;-68
2021/12/20 01:03:03;;;;;;;;;27.67;22.33;;;;;8.57;90.95;102557.31;5054209;28;45498;-68
2021/12/20 01:05:29;;;;;;;;;28.33;24.00;;;;;8.58;91.24;102554.72;5054467;28;45487;-66
2021/12/20 01:07:58;;;;;;;;;25.00;20.67;;;;;8.52;91.13;102538.88;5054281;28;45484;-66
2021/12/20 01:10:29;;;;;;;;;21.00;20.00;;;;;8.63;91.42;102554.81;5054324;28;47576;-67
2021/12/20 01:12:55;;;;;;;;;21.00;19.33;;;;;8.61;91.06;102556.50;5053902;28;45465;-68
2021/12/20 01:15:30;;;;;;;;;26.33;22.67;;;;;8.54;91.26;102545.06;5054396;28;45859;-68
2021/12/20 01:17:55;;;;;;;;;22.67;19.33;;;;;8.34;90.71;102503.59;5054331;28;45511;-68
2021/12/20 01:20:21;;;;;;;;;25.67;23.33;;;;;8.42;90.41;102516.81;5053998;28;46991;-66
2021/12/20 01:22:49;;;;;;;;;26.33;20.67;;;;;8.46;90.17;102523.03;5053843;28;45481;-66
2021/12/20 01:25:16;;;;;;;;;24.00;21.67;;;;;8.53;89.79;102538.91;5053898;28;45472;-66
2021/12/20 01:27:42;;;;;;;;;20.33;20.00;;;;;8.51;90.86;102534.47;5053910;28;45507;-66
2021/12/20 01:30:10;;;;;;;;;29.33;25.00;;;;;8.58;90.92;102546.84;5053632;28;45683;-66
2021/12/20 01:32:35;;;;;;;;;28.00;21.67;;;;;8.58;90.72;102541.59;5053738;28;45560;-67
2021/12/20 01:35:01;;;;;;;;;28.33;24.33;;;;;8.55;89.96;102546.78;5054022;28;45530;-67
2021/12/20 01:37:26;;;;;;;;;25.33;22.33;;;;;8.50;90.27;102536.22;5054002;28;45401;-67
2021/12/20 01:39:53;;;;;;;;;28.00;24.00;;;;;8.62;90.88;102548.66;5053452;28;46465;-67
2021/12/20 01:42:20;;;;;;;;;20.67;20.67;;;;;8.62;91.02;102545.16;5039938;28;45624;-67
2021/12/20 01:44:48;;;;;;;;;21.33;19.33;;;;;8.64;91.13;102549.56;5053537;28;45472;-67
2021/12/20 01:47:14;;;;;;;;;23.67;17.33;;;;;8.62;91.20;102540.78;5054475;28;45356;-67
2021/12/20 01:49:57;;;;;;;;;21.00;17.00;;;;;8.68;91.34;102542.59;5057252;28;45968;-67
2021/12/20 01:52:26;;;;;;;;;12.67;10.00;;;;;8.62;91.59;102525.03;5056925;28;45450;-66
2021/12/20 01:54:53;;;;;;;;;20.00;15.67;;;;;8.56;91.52;102522.31;5057189;28;45621;-66
2021/12/20 01:57:20;;;;;;;;;16.67;13.00;;;;;8.63;91.38;102546.94;5057621;28;45616;-66
2021/12/20 01:59:46;;;;;;;;;23.33;16.33;;;;;8.70;91.46;102546.16;5056780;28;46586;-66
2021/12/20 02:02:11;;;;;;;;;22.33;16.67;;;;;8.66;91.85;102529.47;5056907;28;45312;-66
2021/12/20 02:04:44;;;;;;;;;21.33;16.00;;;;;8.65;91.77;102534.69;5057346;28;45373;-66
2021/12/20 02:07:20;;;;;;;;;20.75;15.25;;;;;8.57;91.91;102517.94;5057210;28;45455;-66
2021/12/20 02:09:46;;;;;;;;;22.00;19.33;;;;;8.65;91.78;102532.06;5056515;28;47247;-66
2021/12/20 02:12:12;;;;;;;;;17.50;17.50;;;;;8.68;92.26;102542.59;5056847;28;45473;-66
2021/12/20 02:14:38;;;;;;;;;21.00;18.00;;;;;8.64;92.24;102519.78;5057069;28;45329;-66
2021/12/20 02:17:03;;;;;;;;;22.00;17.00;;;;;8.69;92.23;102533.88;5057073;28;45365;-66
2021/12/20 02:19:29;;;;;;;;;23.00;17.33;;;;;8.51;91.95;102522.25;5056894;28;45896;-66
2021/12/20 02:21:54;;;;;;;;;16.33;15.67;;;;;8.56;92.66;102522.31;5056579;28;45376;-66
2021/12/20 02:24:19;;;;;;;;;18.67;18.67;;;;;8.66;92.22;102518.97;5056646;28;45482;-66
2021/12/20 02:26:45;;;;;;;;;17.00;14.00;;;;;8.66;92.87;102529.47;5056898;28;45392;-66
2021/12/20 02:29:11;;;;;;;;;17.67;16.33;;;;;8.63;91.97;102533.81;5056823;28;45429;-69
2021/12/20 02:37:19;;;;;;;;;20.00;20.00;;;;;8.65;92.43;102532.94;5056816;28;45699;-69
2021/12/20 02:39:46;;;;;;;;;16.50;13.00;;;;;8.62;92.33;102522.41;5056018;28;45641;-69
2021/12/20 02:42:16;;;;;;;;;22.67;19.00;;;;;8.61;92.72;102525.91;5056359;28;45513;-69
2021/12/20 02:45:10;;;;;;;;;19.33;16.67;;;;;8.57;92.69;102502.19;5056628;28;45532;-68
2021/12/20 02:47:53;;;;;;;;;20.33;16.33;;;;;8.61;92.62;102507.53;5056820;28;45455;-66
2021/12/20 02:50:18;;;;;;;;;20.00;16.00;;;;;8.63;93.03;102516.28;5056648;28;46464;-66
2021/12/20 02:52:44;;;;;;;;;20.67;17.67;;;;;8.57;92.25;102497.84;5056496;28;45524;-66
2021/12/20 02:55:10;;;;;;;;;21.25;17.25;;;;;8.68;93.03;102514.63;5056630;28;45368;-66
2021/12/20 02:57:37;;;;;;;;;18.00;14.00;;;;;8.64;92.72;102509.28;5059587;28;45369;-66
2021/12/20 03:00:10;;;;;;;;;22.67;18.67;;;;;8.65;92.56;102513.69;5059787;28;45518;-67
2021/12/20 03:02:36;;;;;;;;;20.67;16.00;;;;;8.64;92.61;102510.19;5059983;28;45380;-67
2021/12/20 03:05:03;;;;;;;;;19.67;18.67;;;;;8.51;93.28;102493.38;5059975;28;45438;-66
2021/12/20 03:07:28;;;;;;;;;15.33;15.33;;;;;8.65;92.75;102511.06;5060109;28;45226;-66
2021/12/20 03:10:01;;;;;;;;;20.67;18.33;;;;;8.60;92.37;102518.88;5057555;28;46121;-66
2021/12/20 03:12:30;;;;;;;;;16.00;13.33;;;;;8.54;92.94;102521.44;5045155;28;45412;-66
2021/12/20 03:15:01;;;;;;;;;24.00;17.67;;;;;8.53;93.86;102515.28;5053274;28;45566;-66
2021/12/20 03:17:27;;;;;;;;;20.33;14.00;;;;;8.56;93.65;102500.44;5059852;28;45439;-66
2021/12/20 03:19:52;;;;;;;;;22.00;19.33;;;;;8.61;93.51;102498.75;5059408;28;46223;-66
2021/12/20 03:22:18;;;;;;;;;25.00;17.67;;;;;8.39;92.58;102469.53;5059628;28;45709;-66
2021/12/20 03:24:43;;;;;;;;;21.67;14.67;;;;;8.52;92.32;102500.41;5059466;28;45349;-67
2021/12/20 03:27:09;;;;;;;;;19.67;16.67;;;;;8.59;92.82;102498.72;5059836;28;45448;-66
2021/12/20 03:29:34;;;;;;;;;18.67;14.33;;;;;8.64;92.73;102511.91;5059583;28;46505;-66
2021/12/20 03:32:00;;;;;;;;;21.33;17.67;;;;;8.52;92.32;102482.03;5059082;28;45499;-66
2021/12/20 03:34:25;;;;;;;;;17.00;12.67;;;;;8.42;92.07;102464.31;5059635;28;45760;-66
2021/12/20 03:36:50;;;;;;;;;21.33;16.00;;;;;8.59;91.44;102498.72;5059673;28;45447;-66
2021/12/20 03:39:16;;;;;;;;;22.33;17.67;;;;;8.64;91.70;102485.66;5059181;28;46610;-67
2021/12/20 03:41:43;;;;;;;;;24.33;19.00;;;;;8.67;91.88;102490.94;5059487;28;45480;-66
2021/12/20 03:44:08;;;;;;;;;21.67;16.67;;;;;8.65;91.65;102500.56;5059451;28;46677;-67
2021/12/20 03:46:35;;;;;;;;;21.67;14.33;;;;;8.64;92.20;102498.78;5059299;28;45365;-67
2021/12/20 03:49:02;;;;;;;;;21.67;18.00;;;;;8.61;92.24;102478.63;5059086;28;46653;-68
2021/12/20 03:51:27;;;;;;;;;24.33;18.33;;;;;8.62;92.48;102480.38;5059173;28;45425;-67
2021/12/20 03:53:53;;;;;;;;;24.00;17.33;;;;;8.60;92.54;102484.75;5059009;28;45744;-70
2021/12/20 03:56:18;;;;;;;;;26.67;16.67;;;;;8.67;92.47;102491.84;5059237;28;45353;-70
2021/12/20 03:58:44;;;;;;;;;19.67;15.00;;;;;8.65;92.63;102488.28;5059154;28;46623;-70
2021/12/20 04:01:11;;;;;;;;;21.00;16.67;;;;;8.55;92.31;102475.91;5058868;28;45491;-66
2021/12/20 04:03:38;;;;;;;;;24.33;17.67;;;;;8.61;92.25;102491.78;5058604;28;45395;-66
2021/12/20 04:06:06;;;;;;;;;15.33;15.00;;;;;8.32;92.96;102446.69;5059110;28;45456;-66
2021/12/20 04:08:32;;;;;;;;;19.00;15.33;;;;;8.51;93.44;102485.50;5058528;28;45657;-66
2021/12/20 04:10:58;;;;;;;;;20.67;17.33;;;;;8.59;93.42;102496.09;5058819;28;45505;-66
2021/12/20 04:13:29;;;;;;;;;21.67;19.67;;;;;8.57;93.28;102495.22;5059167;28;45408;-64
2021/12/20 04:15:55;;;;;;;;;24.67;17.67;;;;;8.59;93.01;102490.84;5058825;28;45436;-64
2021/12/20 04:18:21;;;;;;;;;18.67;15.00;;;;;8.59;92.75;102493.47;5058603;28;47137;-64
2021/12/20 04:20:46;;;;;;;;;20.25;14.75;;;;;8.55;93.07;102483.78;5058592;28;45531;-64
2021/12/20 04:23:12;;;;;;;;;18.00;16.00;;;;;8.53;92.85;102488.16;5058786;28;45718;-65
2021/12/20 04:25:38;;;;;;;;;17.75;14.50;;;;;8.54;93.29;102492.53;5058654;28;45671;-65
2021/12/20 04:28:03;;;;;;;;;17.33;17.33;;;;;8.29;93.30;102441.41;5058286;28;46288;-65
2021/12/20 04:30:31;;;;;;;;;23.67;19.33;;;;;8.54;93.68;102475.03;5058728;28;45385;-65
2021/12/20 04:32:57;;;;;;;;;19.75;15.25;;;;;8.59;92.92;102482.09;5058586;28;45363;-65
2021/12/20 04:35:22;;;;;;;;;24.67;20.33;;;;;8.54;92.93;102471.53;5058707;28;45463;-65
2021/12/20 04:37:49;;;;;;;;;19.33;16.33;;;;;8.59;92.48;102472.47;5058415;28;45681;-66
2021/12/20 04:40:21;;;;;;;;;20.00;16.67;;;;;8.50;92.36;102467.09;5058037;28;45318;-67
2021/12/20 04:42:52;;;;;;;;;14.67;13.67;;;;;8.55;91.48;102481.16;5058153;28;45693;-67
2021/12/20 04:45:17;;;;;;;;;22.67;15.67;;;;;8.44;92.48;102467.91;5058612;28;45573;-68
2021/12/20 04:47:43;;;;;;;;;16.33;14.00;;;;;8.48;92.99;102471.44;5056170;28;46001;-66
2021/12/20 04:50:09;;;;;;;;;19.33;15.00;;;;;8.52;92.28;102478.50;5057370;28;45507;-66
2021/12/20 04:52:36;;;;;;;;;16.33;14.00;;;;;8.58;92.04;102489.06;5057700;28;45435;-66
2021/12/20 04:55:03;;;;;;;;;18.00;13.67;;;;;8.56;91.40;102490.81;5057570;28;45456;-65
2021/12/20 04:57:28;;;;;;;;;20.33;16.67;;;;;8.51;91.52;102485.50;5057200;28;46492;-66
2021/12/20 04:59:53;;;;;;;;;17.67;15.33;;;;;8.48;92.12;102477.59;5057205;28;45441;-66
2021/12/20 05:02:19;;;;;;;;;16.33;13.00;;;;;8.43;92.08;102462.59;5057728;28;45621;-67
2021/12/20 05:04:44;;;;;;;;;18.67;15.67;;;;;8.44;91.88;102472.25;5058390;28;45500;-65
2021/12/20 05:07:09;;;;;;;;;17.33;14.00;;;;;8.44;92.74;102488.00;5057851;28;46396;-66
2021/12/20 05:09:39;;;;;;;;;18.00;15.33;;;;;8.44;92.78;102481.03;5057845;28;45410;-66
2021/12/20 05:12:14;;;;;;;;;20.67;18.00;;;;;8.44;92.65;102480.13;5057677;28;45401;-66
2021/12/20 05:14:43;;;;;;;;;23.67;21.33;;;;;8.48;92.31;102485.47;5057850;28;45610;-65
2021/12/20 05:17:11;;;;;;;;;27.00;21.67;;;;;8.46;92.52;102487.16;5057780;28;46220;-65
2021/12/20 05:19:38;;;;;;;;;20.67;19.00;;;;;8.46;92.05;102491.53;5056964;28;45417;-65
2021/12/20 05:22:04;;;;;;;;;22.00;18.67;;;;;8.47;92.39;102488.94;5057472;28;45304;-67
2021/12/20 05:24:30;;;;;;;;;28.33;20.00;;;;;8.48;92.38;102487.19;5057881;28;45467;-67
2021/12/20 05:26:55;;;;;;;;;22.33;19.00;;;;;8.49;91.99;102488.97;5057276;28;45931;-65
2021/12/20 05:29:22;;;;;;;;;21.00;18.33;;;;;8.51;92.08;102492.47;5057704;28;45368;-66
2021/12/20 05:31:48;;;;;;;;;22.67;17.33;;;;;8.51;92.03;102492.47;5057680;28;45435;-66
2021/12/20 05:34:13;;;;;;;;;21.33;18.67;;;;;8.44;91.21;102482.75;5057369;28;45349;-65
2021/12/20 05:36:38;;;;;;;;;28.00;23.33;;;;;8.51;91.39;102484.59;5057726;28;46670;-66
2021/12/20 05:39:04;;;;;;;;;21.00;17.67;;;;;8.48;91.62;102484.56;5057388;28;45498;-65
2021/12/20 05:41:30;;;;;;;;;23.33;18.67;;;;;8.49;90.30;102489.81;5057374;28;45483;-65
2021/12/20 05:43:55;;;;;;;;;21.33;18.00;;;;;8.48;91.04;102492.44;5057454;28;45524;-66
2021/12/20 05:46:21;;;;;;;;;18.00;17.00;;;;;8.45;89.48;102480.19;5057094;28;46005;-66
2021/12/20 05:48:46;;;;;;;;;17.00;17.00;;;;;8.49;88.83;102483.72;5057654;28;45348;-66
2021/12/20 05:51:12;;;;;;;;;21.67;17.33;;;;;8.51;88.68;102487.22;5057425;28;45510;-65
2021/12/20 05:53:38;;;;;;;;;21.67;15.00;;;;;8.45;86.90;102472.31;5057601;28;45416;-66
2021/12/20 05:56:04;;;;;;;;;18.00;16.33;;;;;8.40;86.96;102475.69;5056873;28;46718;-66
2021/12/20 05:58:29;;;;;;;;;15.67;13.00;;;;;8.45;85.70;102490.69;5056968;28;45468;-66
2021/12/20 06:00:55;;;;;;;;;23.00;15.00;;;;;8.42;85.26;102493.19;5057210;28;45487;-67
2021/12/20 06:03:21;;;;;;;;;14.75;14.00;;;;;8.41;84.70;102491.44;5057342;28;45328;-69
2021/12/20 06:05:46;;;;;;;;;25.67;16.67;;;;;8.43;84.54;102496.72;5057235;28;45633;-69
2021/12/20 06:08:11;;;;;;;;;22.25;14.25;;;;;8.32;84.37;102480.81;5056662;28;45527;-70
2021/12/20 06:10:37;;;;;;;;;18.00;17.33;;;;;8.40;85.86;102492.31;5056801;28;45403;-68
2021/12/20 06:13:03;;;;;;;;;18.67;15.00;;;;;8.41;85.02;102499.31;5057648;28;45459;-68
2021/12/20 06:15:29;;;;;;;;;23.33;18.00;;;;;8.35;83.56;102497.50;5056846;28;46758;-67
2021/12/20 06:17:55;;;;;;;;;20.67;17.00;;;;;8.39;85.84;102503.66;5056817;28;45361;-68
2021/12/20 06:20:21;;;;;;;;;18.67;13.00;;;;;8.40;84.60;102508.06;5056937;28;45294;-68
2021/12/20 06:22:46;;;;;;;;;22.00;18.00;;;;;8.42;85.10;102497.56;5057148;28;45779;-67
2021/12/20 06:25:12;;;;;;;;;23.00;17.33;;;;;8.45;85.24;102505.53;5056499;28;46486;-67
2021/12/20 06:27:39;;;;;;;;;17.00;14.00;;;;;8.47;84.88;102512.56;5051159;28;45381;-67
2021/12/20 06:30:08;;;;;;;;;17.00;14.67;;;;;8.45;84.81;102506.44;5056742;28;45179;-69
2021/12/20 06:32:35;;;;;;;;;20.67;19.00;;;;;8.33;84.88;102496.56;5060075;28;45495;-68
2021/12/20 06:35:00;;;;;;;;;14.00;13.67;;;;;8.41;84.96;102504.56;5060087;28;46397;-69
2021/12/20 06:37:26;;;;;;;;;20.33;18.00;;;;;8.43;84.19;102512.47;5060531;28;45418;-68
2021/12/20 06:39:51;;;;;;;;;21.33;16.67;;;;;8.43;84.01;102510.72;5060051;28;45570;-69
2021/12/20 06:42:17;;;;;;;;;18.67;17.00;;;;;8.39;80.91;102511.53;5060020;28;45280;-68
2021/12/20 06:44:42;;;;;;;;;24.67;14.33;;;;;8.34;80.93;102516.72;5060260;28;46340;-68
2021/12/20 06:47:08;;;;;;;;;16.67;14.00;;;;;8.32;79.97;102514.91;5059999;28;45474;-70
2021/12/20 06:49:33;;;;;;;;;20.00;13.00;;;;;8.33;81.40;102517.56;5060345;28;45312;-71
2021/12/20 06:52:00;;;;;;;;;16.00;16.00;;;;;8.26;81.19;102506.97;5060199;28;45577;-69
2021/12/20 06:54:26;;;;;;;;;22.67;19.67;;;;;8.23;80.20;102504.28;5059945;28;46245;-70
2021/12/20 06:56:52;;;;;;;;;13.33;12.00;;;;;8.26;77.23;102513.06;5060480;28;45372;-71
2021/12/20 06:59:17;;;;;;;;;13.33;11.67;;;;;8.25;76.54;102519.22;5060214;28;45352;-70
2021/12/20 07:01:42;;;;;;;;;16.33;13.00;;;;;8.11;75.75;102490.13;5060354;28;45406;-66
2021/12/20 07:04:08;;;;;;;;;18.33;15.67;;;;;8.22;74.77;102526.13;5059702;28;46412;-68
2021/12/20 07:06:34;;;;;;;;;13.25;13.25;;;;;8.19;76.86;102524.34;5059646;28;45512;-68
2021/12/20 07:08:59;;;;;;;;;12.50;12.50;;;;;8.12;76.03;102510.25;5059870;28;45242;-70
2021/12/20 07:11:25;;;;;;;;;11.50;11.25;;;;;8.07;75.76;102497.91;5060111;28;45381;-69
2021/12/20 07:13:53;;;;;;;;;19.33;14.00;;;;;8.11;75.20;102505.84;5059787;28;45310;-70
2021/12/20 07:16:19;;;;;;;;;18.67;13.00;;;;;8.18;75.37;102514.72;5059755;28;45171;-68
2021/12/20 07:18:44;;;;;;;;;22.00;14.67;;;;;8.15;74.10;102517.31;5059913;28;45397;-69
2021/12/20 07:21:10;;;;;;;;;21.00;16.67;;;;;8.16;75.25;102521.66;5059914;28;45331;-70
2021/12/20 07:23:35;;;;;;;;;19.33;18.33;;;;;8.15;76.13;102514.69;5059472;28;45581;-69
2021/12/20 07:26:03;;;;;;;;;16.00;12.00;;;;;8.08;74.63;102508.44;5059155;28;45463;-69
2021/12/20 07:28:29;;;;;;;;;18.25;12.75;;;;;8.17;75.34;102531.31;5059647;28;45285;-67
2021/12/20 07:30:54;;;;;;;;;20.00;15.67;;;;;8.18;75.13;102527.84;5059579;28;45532;-67
2021/12/20 07:33:19;;;;;;;;;13.75;12.75;;;;;8.15;75.21;102531.28;5059416;28;46298;-66
2021/12/20 07:35:46;;;;;;;;;30.00;30.00;;;;;8.16;76.41;102526.91;5059264;28;45157;-67
2021/12/20 07:38:13;;;;;;;;;23.67;18.00;;;;;8.17;75.85;102528.69;5059415;28;45524;-67
2021/12/20 07:40:47;;;;;;;;;26.33;17.00;;;;;8.19;76.75;102532.22;5059468;28;45641;-68
2021/12/20 07:43:15;;;;;;;;;24.00;17.00;;;;;8.20;76.22;102533.97;5058530;28;45455;-68
2021/12/20 07:45:42;;;;;;;;;21.00;17.00;;;;;8.12;77.76;102526.00;5058974;28;45528;-68
2021/12/20 07:48:08;;;;;;;;;24.33;18.33;;;;;8.08;77.31;102521.56;5059069;28;45383;-68
2021/12/20 07:50:33;;;;;;;;;21.00;16.50;;;;;8.13;78.03;102543.50;5059039;28;46491;-68
2021/12/20 07:52:59;;;;;;;;;22.00;18.67;;;;;8.12;78.11;102533.88;5058977;28;46266;-68
2021/12/20 07:55:24;;;;;;;;;23.00;20.33;;;;;8.08;78.57;102529.44;5058970;28;45489;-67
2021/12/20 07:57:51;;;;;;;;;29.67;22.67;;;;;8.06;79.52;102525.00;5059213;28;45366;-67
2021/12/20 08:00:17;;;;;;;;;20.33;17.33;;;;;8.16;79.09;102542.66;5058963;28;45517;-67
2021/12/20 08:02:43;;;;;;;;;19.33;16.00;;;;;8.18;80.14;102547.09;5058569;28;46257;-67
2021/12/20 08:05:10;;;;;;;;;26.67;21.33;;;;;8.16;79.11;102537.41;5058847;28;45386;-67
2021/12/20 08:07:35;;;;;;;;;17.67;14.00;;;;;8.22;79.38;102548.03;5058787;28;45500;-68
2021/12/20 08:10:01;;;;;;;;;23.00;18.00;;;;;8.17;79.40;102545.31;5058977;28;45539;-67
2021/12/20 08:12:26;;;;;;;;;33.33;29.00;;;;;8.22;80.55;102540.16;5058587;28;45548;-68
2021/12/20 08:14:52;;;;;;;;;23.33;21.00;;;;;8.28;79.64;102552.50;5058489;28;45476;-68
2021/12/20 08:17:17;;;;;;;;;22.00;20.33;;;;;8.13;78.51;102532.13;5059123;28;45410;-66
2021/12/20 08:19:43;;;;;;;;;22.00;18.33;;;;;8.16;79.19;102546.19;5058962;28;45441;-65
2021/12/20 08:22:08;;;;;;;;;19.67;17.33;;;;;8.23;78.60;102559.41;5058360;28;46269;-64
2021/12/20 08:24:34;;;;;;;;;22.00;19.00;;;;;8.17;79.14;102560.19;5058586;28;45461;-66
2021/12/20 08:26:59;;;;;;;;;23.33;21.33;;;;;8.18;80.25;102564.56;5058343;28;45449;-66
2021/12/20 08:29:26;;;;;;;;;21.00;17.00;;;;;8.15;79.95;102559.28;5059166;28;45252;-69
2021/12/20 08:31:51;;;;;;;;;21.67;17.00;;;;;8.10;78.35;102564.44;5058431;28;47455;-66
2021/12/20 08:34:17;;;;;;;;;19.00;17.67;;;;;8.15;78.84;102565.41;5058094;28;45458;-66
2021/12/20 08:36:43;;;;;;;;;25.33;25.33;;;;;8.19;79.46;102564.59;5058541;28;45274;-66
2021/12/20 08:39:09;;;;;;;;;21.67;16.00;;;;;8.21;79.48;102558.50;5058764;28;45434;-66
2021/12/20 08:41:34;;;;;;;;;17.00;13.75;;;;;8.17;79.17;102562.81;5057753;28;45648;-66
2021/12/20 08:44:00;;;;;;;;;17.25;16.00;;;;;8.21;79.19;102564.63;5058058;28;45403;-66
2021/12/20 08:46:26;;;;;;;;;23.33;18.00;;;;;8.23;78.42;102555.03;5058448;28;45321;-66
2021/12/20 08:48:52;;;;;;;;;20.33;17.67;;;;;8.29;78.95;102559.50;5058536;28;45510;-66
2021/12/20 08:51:18;;;;;;;;;24.33;15.33;;;;;8.32;79.05;102564.78;5058071;28;46551;-65
2021/12/20 08:53:43;;;;;;;;;20.67;17.00;;;;;8.29;78.21;102554.25;5056996;28;45427;-65
2021/12/20 08:56:11;;;;;;;;;14.33;10.67;;;;;8.30;77.79;102556.00;5057982;28;45412;-65
2021/12/20 08:58:36;;;;;;;;;20.33;19.67;;;;;8.18;77.13;102541.84;5058362;28;45609;-65
2021/12/20 09:01:03;;;;;;;;;18.67;15.33;;;;;8.29;76.68;102556.88;5057479;28;46495;-65
2021/12/20 09:03:28;;;;;;;;;21.00;16.00;;;;;8.28;77.35;102558.63;5058179;28;45159;-65
2021/12/20 09:05:54;;;;;;;;;19.67;13.33;;;;;8.25;78.07;102548.06;5058076;28;45343;-65
2021/12/20 09:08:22;;;;;;;;;21.33;15.00;;;;;8.29;77.99;102549.00;5058410;28;45245;-65
2021/12/20 09:10:48;;;;;;;;;19.00;14.00;;;;;8.37;78.39;102566.63;5057628;28;47368;-65
2021/12/20 09:13:14;;;;;;;;;18.33;14.33;;;;;8.28;78.23;102556.00;5057641;28;45553;-66
2021/12/20 09:15:41;;;;;;;;;15.00;13.00;;;;;8.37;77.70;102568.38;5057605;28;45305;-67
2021/12/20 09:18:10;;;;;;;;;14.25;12.00;;;;;8.31;76.83;102547.28;5057639;28;45337;-67
2021/12/20 09:20:37;;;;;;;;;14.25;11.50;;;;;8.40;76.99;102565.81;5056307;28;45697;-67
2021/12/20 09:23:05;;;;;;;;;16.33;12.67;;;;;8.39;75.72;102571.91;5057214;28;45549;-66
2021/12/20 09:25:33;;;;;;;;;12.00;10.00;;;;;8.45;75.68;102568.53;5057177;28;45497;-67
2021/12/20 09:28:00;;;;;;;;;12.25;11.50;;;;;8.42;75.74;102569.31;5056812;28;45415;-66
2021/12/20 09:30:29;;;;;;;;;17.00;14.00;;;;;8.38;76.92;102567.53;5057169;28;45403;-67
2021/12/20 09:32:55;;;;;;;;;16.00;13.75;;;;;8.42;76.82;102565.81;5057631;28;45398;-66
2021/12/20 09:35:21;;;;;;;;;19.50;12.75;;;;;8.50;76.98;102569.50;5056666;28;45670;-67
2021/12/20 09:37:50;;;;;;;;;24.00;18.00;;;;;8.48;76.73;102560.69;5057707;28;45967;-67
2021/12/20 09:40:16;;;;;;;;;14.50;12.50;;;;;8.54;76.98;102576.56;5055691;28;46523;-67
2021/12/20 09:42:51;;;;;;;;;20.33;15.00;;;;;8.56;77.00;102568.72;5057004;28;45535;-67
2021/12/20 09:45:19;;;;;;;;;15.75;12.00;;;;;8.62;75.74;102563.53;5057178;28;45551;-67
2021/12/20 09:47:44;;;;;;;;;17.00;17.00;;;;;8.60;74.16;102563.50;5056577;28;45452;-66
2021/12/20 09:50:11;;;;;;;;;9.00;8.75;;;;;8.65;72.85;102568.84;5056549;28;46328;-67
2021/12/20 09:52:37;;;;;;;;;17.25;9.75;;;;;8.58;73.98;102562.59;5057127;28;45321;-67
2021/12/20 09:55:04;;;;;;;;;13.50;12.25;;;;;8.60;74.06;102566.13;5056700;28;45484;-67
2021/12/20 09:57:31;;;;;;;;;20.00;12.00;;;;;8.69;70.42;102573.28;5057539;28;45686;-67
2021/12/20 09:59:58;;;;;;;;;10.75;9.25;;;;;8.60;72.38;102567.91;5057343;28;46649;-67
2021/12/20 10:02:23;;;;;;;;;13.50;10.50;;;;;8.63;73.51;102574.06;5056095;28;45439;-67
2021/12/20 10:04:48;;;;;;;;;9.50;8.00;;;;;8.69;73.31;102574.16;5057172;28;45448;-66
2021/12/20 10:07:18;;;;;;;;;15.75;11.50;;;;;8.60;73.11;102557.41;5056744;28;45458;-67
2021/12/20 10:09:47;;;;;;;;;17.33;12.00;;;;;8.71;72.36;102577.69;5056893;28;45387;-67
2021/12/20 10:12:25;;;;;;;;;16.00;10.00;;;;;8.74;70.31;102584.72;5057078;28;45313;-67
2021/12/20 10:14:52;;;;;;;;;13.25;11.00;;;;;8.76;69.98;102584.72;5057404;28;45447;-67
2021/12/20 10:17:17;;;;;;;;;12.50;9.75;;;;;8.70;71.00;102570.66;5056857;28;45546;-67
2021/12/20 10:19:43;;;;;;;;;15.25;12.00;;;;;8.71;68.42;102561.94;5057043;28;45786;-67
2021/12/20 10:22:28;;;;;;;;;13.00;11.25;;;;;8.74;68.21;102565.44;5056668;28;45370;-66
2021/12/20 10:25:02;;;;;;;;;17.00;12.00;;;;;8.83;67.82;102568.19;5056238;28;45294;-67
2021/12/20 10:27:35;;;;;;;;;15.75;10.75;;;;;8.87;69.03;102570.00;5056980;28;45535;-67
2021/12/20 10:30:22;;;;;;;;;18.75;10.00;;;;;8.85;70.68;102562.09;5056908;28;46563;-67
2021/12/20 10:32:48;;;;;;;;;13.00;12.25;;;;;8.90;69.80;102556.91;5057048;28;45299;-66
2021/12/20 10:35:25;;;;;;;;;17.00;13.00;;;;;8.95;67.89;102557.88;5056096;28;45357;-65
2021/12/20 10:37:57;;;;;;;;;11.25;7.50;;;;;8.94;67.04;102557.84;5054848;28;45385;-67
2021/12/20 10:40:22;;;;;;;;;9.25;6.00;;;;;8.57;66.70;102497.84;5048726;28;45478;-66
2021/12/20 10:42:53;;;;;;;;;9.00;9.00;;;;;8.95;65.83;102565.75;5053591;28;45504;-66
2021/12/20 10:45:20;;;;;;;;;9.50;8.50;;;;;8.97;66.51;102573.66;5054266;28;45478;-72
2021/12/20 10:47:47;;;;;;;;;14.25;10.00;;;;;8.93;66.16;102564.88;5056493;28;45269;-71
2021/12/20 10:50:22;;;;;;;;;14.50;9.00;;;;;8.98;67.08;102578.06;5054990;28;47542;-69
2021/12/20 10:52:47;;;;;;;;;18.00;12.75;;;;;8.91;67.52;102566.56;5056558;28;45179;-69
2021/12/20 10:55:12;;;;;;;;;14.00;12.25;;;;;8.85;65.08;102561.25;5055445;28;45316;-69
2021/12/20 10:57:38;;;;;;;;;14.75;7.75;;;;;8.69;66.22;102542.63;5053512;28;45295;-71
2021/12/20 11:00:15;;;;;;;;;14.50;9.75;;;;;8.85;66.53;102556.84;5055452;28;46391;-68
2021/12/20 11:06:13;;;;;;;;;11.50;9.00;;;;;8.86;65.12;102563.88;5042267;28;45458;-66
2021/12/20 11:11:24;;;;;;;;;10.50;7.25;;;;;8.91;64.40;102561.31;5051862;28;45411;-68
2021/12/20 11:13:49;;;;;;;;;12.00;7.00;;;;;8.89;63.08;102560.44;5036850;28;45308;-67
2021/12/20 11:16:35;;;;;;;;;7.50;6.00;;;;;8.91;65.33;102566.56;5037355;28;45441;-67
2021/12/20 11:19:07;;;;;;;;;8.75;5.50;;;;;8.89;63.77;102563.94;5039520;28;45483;-67
2021/12/20 11:21:57;;;;;;;;;11.25;5.25;;;;;8.67;64.07;102520.72;5052044;28;46864;-69
2021/12/20 11:24:27;;;;;;;;;12.25;9.75;;;;;8.95;63.38;102555.25;5047519;27;45309;-67
2021/12/20 11:26:53;;;;;;;;;12.00;9.00;;;;;9.00;64.14;102552.66;5050968;28;45657;-64
2021/12/20 11:29:20;;;;;;;;;10.75;8.25;;;;;9.03;63.93;102553.63;5057920;28;45454;-66
2021/12/20 11:31:46;;;;;;;;;16.25;7.75;;;;;8.97;62.09;102539.50;5055880;28;46379;-67